TimeEDT,TemperatureF,Dew PointF,Humidity,Sea Level PressureIn,VisibilityMPH,Wind Direction,Wind SpeedMPH,Gust SpeedMPH,PrecipitationIn,Events,Conditions,WindDirDegrees,DateUTC
12:52 AM,46.0,39.0,76,29.56,10.0,WSW,3.5,-,N/A,,Partly Cloudy,250,2012-11-02 04:52:00
1:52 AM,42.1,37.9,85,29.57,10.0,Calm,Calm,-,N/A,,Clear,0,2012-11-02 05:52:00
2:52 AM,43.0,39.0,86,29.57,10.0,Calm,Calm,-,N/A,,Overcast,0,2012-11-02 06:52:00
3:52 AM,45.0,39.9,82,29.56,10.0,Calm,Calm,-,N/A,,Overcast,0,2012-11-02 07:52:00
4:52 AM,46.0,39.9,79,29.56,10.0,Calm,Calm,-,N/A,,Overcast,0,2012-11-02 08:52:00
5:52 AM,43.0,39.0,86,29.56,10.0,Calm,Calm,-,N/A,,Mostly Cloudy,0,2012-11-02 09:52:00
6:52 AM,44.1,39.9,85,29.56,10.0,Calm,Calm,-,N/A,,Mostly Cloudy,0,2012-11-02 10:52:00
7:52 AM,46.9,39.9,77,29.57,10.0,Calm,Calm,-,N/A,,Overcast,0,2012-11-02 11:52:00
8:52 AM,48.9,41.0,74,29.57,10.0,West,4.6,-,N/A,,Mostly Cloudy,260,2012-11-02 12:52:00
9:52 AM,50.0,39.9,68,29.57,10.0,WSW,8.1,-,N/A,,Mostly Cloudy,240,2012-11-02 13:52:00
10:52 AM,51.1,39.0,63,29.57,10.0,WNW,4.6,-,N/A,,Overcast,290,2012-11-02 14:52:00
11:52 AM,52.0,37.9,59,29.56,10.0,WSW,9.2,-,N/A,,Overcast,250,2012-11-02 15:52:00
12:52 PM,52.0,37.9,59,29.55,10.0,WNW,5.8,-,0.00,Rain,Light Rain,290,2012-11-02 16:52:00
1:52 PM,52.0,35.1,53,29.54,10.0,WNW,9.2,-,0.00,,Overcast,290,2012-11-02 17:52:00
2:52 PM,50.0,37.0,61,29.55,10.0,NW,5.8,-,0.00,,Mostly Cloudy,310,2012-11-02 18:52:00
3:52 PM,51.1,36.0,56,29.55,10.0,Variable,5.8,-,N/A,,Overcast,0,2012-11-02 19:52:00
4:52 PM,51.1,37.0,59,29.56,10.0,Calm,Calm,-,0.00,Rain,Light Rain,0,2012-11-02 20:52:00
5:52 PM,50.0,36.0,59,29.57,10.0,WNW,4.6,-,0.00,,Overcast,290,2012-11-02 21:52:00
6:52 PM,48.9,36.0,61,29.58,10.0,WNW,4.6,-,N/A,,Overcast,300,2012-11-02 22:52:00
7:52 PM,48.0,35.1,61,29.60,10.0,WNW,3.5,-,N/A,,Overcast,300,2012-11-02 23:52:00
8:52 PM,46.0,34.0,63,29.60,10.0,WNW,3.5,-,N/A,,Mostly Cloudy,300,2012-11-03 00:52:00
9:52 PM,37.9,34.0,86,29.61,10.0,Calm,Calm,-,N/A,,Clear,0,2012-11-03 01:52:00
10:52 PM,36.0,33.1,89,29.61,10.0,Calm,Calm,-,N/A,,Clear,0,2012-11-03 02:52:00
11:52 PM,35.1,32.0,89,29.62,10.0,Calm,Calm,-,N/A,,Clear,0,2012-11-03 03:52:00